sensor_id;sensor_type;location;lat;lon;timestamp;P1;durP1;ratioP1;P2;durP2;ratioP2
41897;SDS011;27576;53.366;-1.498;2023-03-24T00:00:03;12.23;;;3.72;;
41897;SDS011;27576;53.366;-1.498;2023-03-24T00:02:33;13.82;;;4.28;;
41897;SDS011;27576;53.366;-1.498;2023-03-24T00:05:01;13.32;;;4.40;;
41897;SDS011;27576;53.366;-1.498;2023-03-24T00:07:29;11.13;;;4.20;;
41897;SDS011;27576;53.366;-1.498;2023-03-24T00:09:57;10.80;;;3.78;;
41897;SDS011;27576;53.366;-1.498;2023-03-24T00:12:23;8.40;;;3.53;;
41897;SDS011;27576;53.366;-1.498;2023-03-24T00:14:51;10.13;;;3.83;;
41897;SDS011;27576;53.366;-1.498;2023-03-24T00:17:19;9.32;;;3.85;;
41897;SDS011;27576;53.366;-1.498;2023-03-24T00:19:49;13.77;;;3.65;;
41897;SDS011;27576;53.366;-1.498;2023-03-24T00:22:15;9.82;;;2.88;;
41897;SDS011;27576;53.366;-1.498;2023-03-24T00:24:40;13.05;;;3.60;;
41897;SDS011;27576;53.366;-1.498;2023-03-24T00:27:06;14.00;;;3.70;;
41897;SDS011;27576;53.366;-1.498;2023-03-24T00:29:32;7.53;;;3.17;;
41897;SDS011;27576;53.366;-1.498;2023-03-24T00:31:57;9.38;;;3.30;;
41897;SDS011;27576;53.366;-1.498;2023-03-24T00:34:23;9.00;;;2.75;;
41897;SDS011;27576;53.366;-1.498;2023-03-24T00:36:50;11.82;;;3.08;;
41897;SDS011;27576;53.366;-1.498;2023-03-24T00:39:16;12.00;;;2.85;;
41897;SDS011;27576;53.366;-1.498;2023-03-24T00:41:43;13.48;;;3.00;;
41897;SDS011;27576;53.366;-1.498;2023-03-24T00:44:10;9.38;;;2.78;;
41897;SDS011;27576;53.366;-1.498;2023-03-24T00:46:43;9.02;;;2.42;;
41897;SDS011;27576;53.366;-1.498;2023-03-24T00:49:19;7.75;;;2.33;;
41897;SDS011;27576;53.366;-1.498;2023-03-24T00:52:07;16.38;;;2.88;;
41897;SDS011;27576;53.366;-1.498;2023-03-24T00:54:44;16.20;;;3.45;;
41897;SDS011;27576;53.366;-1.498;2023-03-24T00:57:12;12.98;;;3.10;;
41897;SDS011;27576;53.366;-1.498;2023-03-24T00:59:39;19.42;;;3.58;;
41897;SDS011;27576;53.366;-1.498;2023-03-24T01:02:12;12.75;;;3.10;;
41897;SDS011;27576;53.366;-1.498;2023-03-24T01:04:39;10.13;;;3.05;;
41897;SDS011;27576;53.366;-1.498;2023-03-24T01:07:05;16.30;;;3.08;;
41897;SDS011;27576;53.366;-1.498;2023-03-24T01:09:35;14.63;;;3.35;;
41897;SDS011;27576;53.366;-1.498;2023-03-24T01:12:01;10.88;;;3.17;;
41897;SDS011;27576;53.366;-1.498;2023-03-24T01:14:28;15.73;;;4.50;;
41897;SDS011;27576;53.366;-1.498;2023-03-24T01:16:55;17.02;;;3.70;;
41897;SDS011;27576;53.366;-1.498;2023-03-24T01:19:21;15.02;;;3.38;;
41897;SDS011;27576;53.366;-1.498;2023-03-24T01:21:46;17.80;;;3.85;;
41897;SDS011;27576;53.366;-1.498;2023-03-24T01:24:14;16.13;;;4.03;;
41897;SDS011;27576;53.366;-1.498;2023-03-24T01:26:40;17.38;;;4.30;;
41897;SDS011;27576;53.366;-1.498;2023-03-24T01:29:06;13.75;;;3.50;;
41897;SDS011;27576;53.366;-1.498;2023-03-24T01:31:32;15.15;;;3.85;;
41897;SDS011;27576;53.366;-1.498;2023-03-24T01:33:57;11.65;;;3.47;;
41897;SDS011;27576;53.366;-1.498;2023-03-24T01:36:23;11.75;;;3.22;;
41897;SDS011;27576;53.366;-1.498;2023-03-24T01:38:48;14.73;;;3.53;;
41897;SDS011;27576;53.366;-1.498;2023-03-24T01:41:13;13.90;;;3.40;;
41897;SDS011;27576;53.366;-1.498;2023-03-24T01:43:39;17.33;;;3.92;;
41897;SDS011;27576;53.366;-1.498;2023-03-24T01:46:07;16.33;;;3.05;;
41897;SDS011;27576;53.366;-1.498;2023-03-24T01:51:22;11.82;;;3.25;;
41897;SDS011;27576;53.366;-1.498;2023-03-24T01:56:53;12.63;;;3.35;;
41897;SDS011;27576;53.366;-1.498;2023-03-24T01:59:26;17.13;;;4.10;;
41897;SDS011;27576;53.366;-1.498;2023-03-24T02:01:54;14.18;;;3.30;;
41897;SDS011;27576;53.366;-1.498;2023-03-24T02:04:28;14.73;;;3.45;;
41897;SDS011;27576;53.366;-1.498;2023-03-24T02:06:55;14.10;;;3.60;;
41897;SDS011;27576;53.366;-1.498;2023-03-24T02:09:25;25.38;;;3.88;;
41897;SDS011;27576;53.366;-1.498;2023-03-24T02:11:51;17.70;;;3.72;;
41897;SDS011;27576;53.366;-1.498;2023-03-24T02:14:16;16.90;;;4.07;;
41897;SDS011;27576;53.366;-1.498;2023-03-24T02:16:47;16.83;;;4.30;;
41897;SDS011;27576;53.366;-1.498;2023-03-24T02:22:30;21.70;;;4.05;;
41897;SDS011;27576;53.366;-1.498;2023-03-24T02:33:45;18.10;;;3.70;;
41897;SDS011;27576;53.366;-1.498;2023-03-24T02:42:09;19.67;;;4.07;;
41897;SDS011;27576;53.366;-1.498;2023-03-24T02:47:11;16.38;;;4.00;;
41897;SDS011;27576;53.366;-1.498;2023-03-24T02:55:15;16.60;;;3.63;;
41897;SDS011;27576;53.366;-1.498;2023-03-24T02:57:55;18.15;;;4.03;;
41897;SDS011;27576;53.366;-1.498;2023-03-24T03:00:41;18.30;;;3.75;;
41897;SDS011;27576;53.366;-1.498;2023-03-24T03:03:28;14.90;;;3.03;;
41897;SDS011;27576;53.366;-1.498;2023-03-24T03:06:08;18.65;;;2.70;;
41897;SDS011;27576;53.366;-1.498;2023-03-24T03:08:43;15.95;;;3.53;;
41897;SDS011;27576;53.366;-1.498;2023-03-24T03:11:12;12.25;;;3.22;;
41897;SDS011;27576;53.366;-1.498;2023-03-24T03:13:41;24.63;;;3.72;;
41897;SDS011;27576;53.366;-1.498;2023-03-24T03:16:31;18.83;;;3.78;;
41897;SDS011;27576;53.366;-1.498;2023-03-24T03:19:04;21.30;;;4.10;;
41897;SDS011;27576;53.366;-1.498;2023-03-24T03:21:38;17.13;;;3.55;;
41897;SDS011;27576;53.366;-1.498;2023-03-24T03:24:11;19.40;;;3.90;;
41897;SDS011;27576;53.366;-1.498;2023-03-24T03:26:41;20.25;;;4.05;;
41897;SDS011;27576;53.366;-1.498;2023-03-24T03:29:14;18.30;;;4.25;;
41897;SDS011;27576;53.366;-1.498;2023-03-24T03:31:45;22.45;;;4.43;;
41897;SDS011;27576;53.366;-1.498;2023-03-24T03:34:23;16.27;;;3.90;;
41897;SDS011;27576;53.366;-1.498;2023-03-24T03:39:49;22.67;;;4.28;;
41897;SDS011;27576;53.366;-1.498;2023-03-24T03:42:20;27.20;;;4.53;;
41897;SDS011;27576;53.366;-1.498;2023-03-24T03:44:46;12.35;;;3.38;;
41897;SDS011;27576;53.366;-1.498;2023-03-24T03:47:12;19.83;;;3.42;;
41897;SDS011;27576;53.366;-1.498;2023-03-24T03:49:39;15.85;;;2.75;;
41897;SDS011;27576;53.366;-1.498;2023-03-24T03:52:04;19.20;;;4.30;;
41897;SDS011;27576;53.366;-1.498;2023-03-24T03:54:30;14.40;;;3.30;;
41897;SDS011;27576;53.366;-1.498;2023-03-24T03:56:57;18.42;;;4.00;;
41897;SDS011;27576;53.366;-1.498;2023-03-24T03:59:27;16.60;;;3.53;;
41897;SDS011;27576;53.366;-1.498;2023-03-24T04:02:08;20.17;;;3.13;;
41897;SDS011;27576;53.366;-1.498;2023-03-24T04:17:02;21.30;;;3.80;;
41897;SDS011;27576;53.366;-1.498;2023-03-24T04:19:54;12.45;;;3.38;;
41897;SDS011;27576;53.366;-1.498;2023-03-24T04:22:30;30.70;;;4.88;;
41897;SDS011;27576;53.366;-1.498;2023-03-24T04:30:59;20.73;;;4.20;;
41897;SDS011;27576;53.366;-1.498;2023-03-24T04:36:08;18.48;;;3.97;;
41897;SDS011;27576;53.366;-1.498;2023-03-24T04:38:46;19.55;;;3.53;;
41897;SDS011;27576;53.366;-1.498;2023-03-24T04:41:17;22.13;;;4.53;;
41897;SDS011;27576;53.366;-1.498;2023-03-24T04:43:45;19.92;;;4.00;;
41897;SDS011;27576;53.366;-1.498;2023-03-24T04:46:11;20.52;;;4.10;;
41897;SDS011;27576;53.366;-1.498;2023-03-24T04:48:42;23.20;;;3.97;;
41897;SDS011;27576;53.366;-1.498;2023-03-24T04:51:09;19.63;;;3.53;;
41897;SDS011;27576;53.366;-1.498;2023-03-24T04:53:35;18.73;;;3.85;;
41897;SDS011;27576;53.366;-1.498;2023-03-24T04:58:32;20.52;;;3.97;;
41897;SDS011;27576;53.366;-1.498;2023-03-24T05:00:58;14.15;;;2.88;;
41897;SDS011;27576;53.366;-1.498;2023-03-24T05:03:23;14.18;;;3.08;;
41897;SDS011;27576;53.366;-1.498;2023-03-24T05:05:49;24.65;;;4.93;;
41897;SDS011;27576;53.366;-1.498;2023-03-24T05:08:16;22.77;;;4.22;;
41897;SDS011;27576;53.366;-1.498;2023-03-24T05:10:43;19.85;;;4.10;;
41897;SDS011;27576;53.366;-1.498;2023-03-24T05:13:09;17.85;;;3.65;;
41897;SDS011;27576;53.366;-1.498;2023-03-24T05:15:38;17.95;;;3.63;;
41897;SDS011;27576;53.366;-1.498;2023-03-24T05:18:04;26.20;;;3.67;;
41897;SDS011;27576;53.366;-1.498;2023-03-24T05:20:30;14.32;;;3.45;;
41897;SDS011;27576;53.366;-1.498;2023-03-24T05:22:56;20.92;;;3.47;;
41897;SDS011;27576;53.366;-1.498;2023-03-24T05:25:21;18.70;;;3.22;;
41897;SDS011;27576;53.366;-1.498;2023-03-24T05:27:47;18.23;;;3.95;;
41897;SDS011;27576;53.366;-1.498;2023-03-24T05:30:13;24.95;;;4.20;;
41897;SDS011;27576;53.366;-1.498;2023-03-24T05:32:40;19.52;;;3.40;;
41897;SDS011;27576;53.366;-1.498;2023-03-24T05:35:05;18.55;;;4.32;;
41897;SDS011;27576;53.366;-1.498;2023-03-24T05:37:31;22.05;;;3.67;;
41897;SDS011;27576;53.366;-1.498;2023-03-24T05:39:56;18.20;;;4.00;;
41897;SDS011;27576;53.366;-1.498;2023-03-24T05:42:21;19.63;;;3.63;;
41897;SDS011;27576;53.366;-1.498;2023-03-24T05:44:47;20.25;;;3.47;;
41897;SDS011;27576;53.366;-1.498;2023-03-24T05:47:13;22.50;;;4.18;;
41897;SDS011;27576;53.366;-1.498;2023-03-24T05:49:42;21.98;;;3.88;;
41897;SDS011;27576;53.366;-1.498;2023-03-24T05:52:09;21.77;;;3.97;;
41897;SDS011;27576;53.366;-1.498;2023-03-24T05:54:36;25.38;;;4.40;;
41897;SDS011;27576;53.366;-1.498;2023-03-24T05:57:03;22.05;;;4.47;;
41897;SDS011;27576;53.366;-1.498;2023-03-24T05:59:32;23.23;;;4.05;;
41897;SDS011;27576;53.366;-1.498;2023-03-24T06:02:00;19.85;;;3.50;;
41897;SDS011;27576;53.366;-1.498;2023-03-24T06:04:26;25.92;;;4.13;;
41897;SDS011;27576;53.366;-1.498;2023-03-24T06:06:55;17.23;;;4.10;;
41897;SDS011;27576;53.366;-1.498;2023-03-24T06:09:23;22.52;;;4.20;;
41897;SDS011;27576;53.366;-1.498;2023-03-24T06:11:49;16.85;;;3.70;;
41897;SDS011;27576;53.366;-1.498;2023-03-24T06:14:15;16.38;;;3.58;;
41897;SDS011;27576;53.366;-1.498;2023-03-24T06:16:40;21.02;;;4.45;;
41897;SDS011;27576;53.366;-1.498;2023-03-24T06:19:06;19.42;;;4.20;;
41897;SDS011;27576;53.366;-1.498;2023-03-24T06:21:32;25.20;;;4.07;;
41897;SDS011;27576;53.366;-1.498;2023-03-24T06:23:58;18.73;;;3.65;;
41897;SDS011;27576;53.366;-1.498;2023-03-24T06:26:24;19.67;;;3.72;;
41897;SDS011;27576;53.366;-1.498;2023-03-24T06:28:49;12.85;;;2.85;;
41897;SDS011;27576;53.366;-1.498;2023-03-24T06:31:16;19.55;;;3.53;;
41897;SDS011;27576;53.366;-1.498;2023-03-24T06:33:45;19.55;;;4.20;;
41897;SDS011;27576;53.366;-1.498;2023-03-24T06:36:14;13.95;;;3.03;;
41897;SDS011;27576;53.366;-1.498;2023-03-24T06:38:40;18.58;;;3.85;;
41897;SDS011;27576;53.366;-1.498;2023-03-24T06:41:06;18.30;;;3.10;;
41897;SDS011;27576;53.366;-1.498;2023-03-24T06:43:32;12.52;;;3.47;;
41897;SDS011;27576;53.366;-1.498;2023-03-24T06:45:58;16.00;;;3.22;;
41897;SDS011;27576;53.366;-1.498;2023-03-24T06:48:24;16.67;;;3.45;;
41897;SDS011;27576;53.366;-1.498;2023-03-24T06:50:53;19.17;;;3.58;;
41897;SDS011;27576;53.366;-1.498;2023-03-24T06:53:19;19.15;;;3.72;;
41897;SDS011;27576;53.366;-1.498;2023-03-24T06:55:46;16.67;;;3.65;;
41897;SDS011;27576;53.366;-1.498;2023-03-24T06:58:12;21.63;;;4.15;;
41897;SDS011;27576;53.366;-1.498;2023-03-24T07:00:38;16.42;;;3.35;;
41897;SDS011;27576;53.366;-1.498;2023-03-24T07:03:05;17.20;;;3.70;;
41897;SDS011;27576;53.366;-1.498;2023-03-24T07:05:42;22.15;;;4.28;;
41897;SDS011;27576;53.366;-1.498;2023-03-24T07:08:10;16.77;;;3.65;;
41897;SDS011;27576;53.366;-1.498;2023-03-24T07:10:39;16.35;;;4.05;;
41897;SDS011;27576;53.366;-1.498;2023-03-24T07:13:05;18.08;;;4.13;;
41897;SDS011;27576;53.366;-1.498;2023-03-24T07:15:31;14.77;;;3.45;;
41897;SDS011;27576;53.366;-1.498;2023-03-24T07:17:57;25.40;;;4.30;;
41897;SDS011;27576;53.366;-1.498;2023-03-24T07:20:24;22.48;;;4.38;;
41897;SDS011;27576;53.366;-1.498;2023-03-24T07:22:49;20.08;;;3.67;;
41897;SDS011;27576;53.366;-1.498;2023-03-24T07:25:16;18.85;;;3.67;;
41897;SDS011;27576;53.366;-1.498;2023-03-24T07:27:44;21.70;;;4.40;;
41897;SDS011;27576;53.366;-1.498;2023-03-24T07:30:10;25.52;;;4.60;;
41897;SDS011;27576;53.366;-1.498;2023-03-24T07:32:35;22.83;;;4.85;;
41897;SDS011;27576;53.366;-1.498;2023-03-24T07:35:06;19.35;;;3.97;;
41897;SDS011;27576;53.366;-1.498;2023-03-24T07:37:35;25.00;;;4.85;;
41897;SDS011;27576;53.366;-1.498;2023-03-24T07:40:02;24.38;;;3.88;;
41897;SDS011;27576;53.366;-1.498;2023-03-24T07:42:30;20.58;;;4.90;;
41897;SDS011;27576;53.366;-1.498;2023-03-24T07:44:56;21.35;;;4.88;;
41897;SDS011;27576;53.366;-1.498;2023-03-24T07:47:21;21.35;;;3.70;;
41897;SDS011;27576;53.366;-1.498;2023-03-24T07:49:46;30.33;;;4.57;;
41897;SDS011;27576;53.366;-1.498;2023-03-24T07:52:12;21.13;;;4.18;;
41897;SDS011;27576;53.366;-1.498;2023-03-24T07:54:37;22.20;;;4.53;;
41897;SDS011;27576;53.366;-1.498;2023-03-24T07:57:03;23.92;;;4.13;;
41897;SDS011;27576;53.366;-1.498;2023-03-24T07:59:28;26.02;;;5.35;;
41897;SDS011;27576;53.366;-1.498;2023-03-24T08:01:53;24.50;;;4.63;;
41897;SDS011;27576;53.366;-1.498;2023-03-24T08:04:19;28.13;;;4.75;;
41897;SDS011;27576;53.366;-1.498;2023-03-24T08:06:45;22.27;;;3.92;;
41897;SDS011;27576;53.366;-1.498;2023-03-24T08:09:11;22.52;;;4.55;;
41897;SDS011;27576;53.366;-1.498;2023-03-24T08:11:38;19.75;;;4.35;;
41897;SDS011;27576;53.366;-1.498;2023-03-24T08:14:04;22.67;;;4.88;;
41897;SDS011;27576;53.366;-1.498;2023-03-24T08:16:29;24.85;;;5.32;;
41897;SDS011;27576;53.366;-1.498;2023-03-24T08:18:55;28.20;;;4.80;;
41897;SDS011;27576;53.366;-1.498;2023-03-24T08:21:22;27.70;;;4.95;;
41897;SDS011;27576;53.366;-1.498;2023-03-24T08:23:48;16.27;;;3.92;;
41897;SDS011;27576;53.366;-1.498;2023-03-24T08:26:13;22.33;;;4.25;;
41897;SDS011;27576;53.366;-1.498;2023-03-24T08:28:39;23.95;;;4.47;;
41897;SDS011;27576;53.366;-1.498;2023-03-24T08:31:05;18.15;;;3.75;;
41897;SDS011;27576;53.366;-1.498;2023-03-24T08:33:31;16.42;;;3.95;;
41897;SDS011;27576;53.366;-1.498;2023-03-24T08:35:57;17.13;;;4.10;;
41897;SDS011;27576;53.366;-1.498;2023-03-24T08:38:24;25.27;;;4.07;;
41897;SDS011;27576;53.366;-1.498;2023-03-24T08:40:57;18.95;;;3.92;;
41897;SDS011;27576;53.366;-1.498;2023-03-24T08:43:31;13.43;;;3.88;;
41897;SDS011;27576;53.366;-1.498;2023-03-24T08:45:57;19.05;;;4.47;;
41897;SDS011;27576;53.366;-1.498;2023-03-24T08:48:23;19.75;;;4.18;;
41897;SDS011;27576;53.366;-1.498;2023-03-24T08:50:50;27.55;;;4.93;;
41897;SDS011;27576;53.366;-1.498;2023-03-24T08:53:15;23.25;;;4.53;;
41897;SDS011;27576;53.366;-1.498;2023-03-24T08:55:41;21.45;;;4.32;;
41897;SDS011;27576;53.366;-1.498;2023-03-24T08:58:28;25.73;;;4.50;;
41897;SDS011;27576;53.366;-1.498;2023-03-24T09:00:53;21.08;;;4.07;;
41897;SDS011;27576;53.366;-1.498;2023-03-24T09:03:18;17.20;;;3.72;;
41897;SDS011;27576;53.366;-1.498;2023-03-24T09:05:46;19.58;;;4.93;;
41897;SDS011;27576;53.366;-1.498;2023-03-24T09:08:12;26.08;;;4.90;;
41897;SDS011;27576;53.366;-1.498;2023-03-24T09:10:39;19.65;;;4.18;;
41897;SDS011;27576;53.366;-1.498;2023-03-24T09:13:05;21.55;;;4.20;;
41897;SDS011;27576;53.366;-1.498;2023-03-24T09:15:31;16.02;;;4.70;;
41897;SDS011;27576;53.366;-1.498;2023-03-24T09:17:57;19.52;;;4.43;;
41897;SDS011;27576;53.366;-1.498;2023-03-24T09:20:22;16.23;;;3.60;;
41897;SDS011;27576;53.366;-1.498;2023-03-24T09:22:48;13.25;;;3.13;;
41897;SDS011;27576;53.366;-1.498;2023-03-24T09:25:14;17.00;;;3.55;;
41897;SDS011;27576;53.366;-1.498;2023-03-24T09:27:43;22.10;;;3.83;;
41897;SDS011;27576;53.366;-1.498;2023-03-24T09:30:09;20.60;;;4.70;;
41897;SDS011;27576;53.366;-1.498;2023-03-24T09:32:36;24.75;;;5.32;;
41897;SDS011;27576;53.366;-1.498;2023-03-24T09:35:02;16.08;;;4.85;;
41897;SDS011;27576;53.366;-1.498;2023-03-24T09:37:29;23.63;;;4.85;;
41897;SDS011;27576;53.366;-1.498;2023-03-24T09:39:55;15.32;;;3.70;;
41897;SDS011;27576;53.366;-1.498;2023-03-24T09:42:23;14.50;;;3.92;;
41897;SDS011;27576;53.366;-1.498;2023-03-24T09:44:58;18.25;;;4.15;;
41897;SDS011;27576;53.366;-1.498;2023-03-24T09:47:32;21.63;;;4.07;;
41897;SDS011;27576;53.366;-1.498;2023-03-24T09:50:05;21.60;;;3.70;;
41897;SDS011;27576;53.366;-1.498;2023-03-24T09:52:41;20.67;;;3.45;;
41897;SDS011;27576;53.366;-1.498;2023-03-24T09:55:12;16.05;;;3.25;;
41897;SDS011;27576;53.366;-1.498;2023-03-24T09:57:44;15.32;;;3.60;;
41897;SDS011;27576;53.366;-1.498;2023-03-24T10:02:49;20.40;;;3.83;;
41897;SDS011;27576;53.366;-1.498;2023-03-24T10:07:58;15.85;;;4.25;;
41897;SDS011;27576;53.366;-1.498;2023-03-24T10:13:17;14.07;;;3.33;;
41897;SDS011;27576;53.366;-1.498;2023-03-24T10:15:49;19.15;;;4.22;;
41897;SDS011;27576;53.366;-1.498;2023-03-24T10:18:30;16.23;;;3.28;;
41897;SDS011;27576;53.366;-1.498;2023-03-24T10:21:13;14.88;;;3.58;;
41897;SDS011;27576;53.366;-1.498;2023-03-24T10:23:50;12.80;;;3.58;;
41897;SDS011;27576;53.366;-1.498;2023-03-24T10:31:40;14.90;;;3.13;;
41897;SDS011;27576;53.366;-1.498;2023-03-24T10:34:15;18.23;;;3.92;;
41897;SDS011;27576;53.366;-1.498;2023-03-24T10:36:41;16.70;;;4.28;;
41897;SDS011;27576;53.366;-1.498;2023-03-24T10:39:12;16.10;;;3.35;;
41897;SDS011;27576;53.366;-1.498;2023-03-24T10:41:39;25.83;;;4.47;;
41897;SDS011;27576;53.366;-1.498;2023-03-24T10:44:06;17.67;;;3.88;;
41897;SDS011;27576;53.366;-1.498;2023-03-24T10:46:33;15.20;;;4.00;;
41897;SDS011;27576;53.366;-1.498;2023-03-24T10:51:41;17.85;;;2.97;;
41897;SDS011;27576;53.366;-1.498;2023-03-24T10:54:26;17.88;;;3.63;;
41897;SDS011;27576;53.366;-1.498;2023-03-24T11:02:15;17.42;;;4.03;;
41897;SDS011;27576;53.366;-1.498;2023-03-24T11:04:48;20.70;;;3.83;;
41897;SDS011;27576;53.366;-1.498;2023-03-24T11:07:19;19.73;;;3.35;;
41897;SDS011;27576;53.366;-1.498;2023-03-24T11:10:31;20.52;;;3.63;;
41897;SDS011;27576;53.366;-1.498;2023-03-24T11:12:38;12.88;;;3.67;;
41897;SDS011;27576;53.366;-1.498;2023-03-24T11:17:54;14.07;;;3.50;;
41897;SDS011;27576;53.366;-1.498;2023-03-24T11:25:45;13.63;;;2.90;;
41897;SDS011;27576;53.366;-1.498;2023-03-24T11:28:20;20.83;;;3.60;;
41897;SDS011;27576;53.366;-1.498;2023-03-24T11:30:51;20.42;;;3.75;;
41897;SDS011;27576;53.366;-1.498;2023-03-24T11:33:22;15.02;;;2.60;;
41897;SDS011;27576;53.366;-1.498;2023-03-24T11:35:52;11.60;;;1.92;;
41897;SDS011;27576;53.366;-1.498;2023-03-24T11:38:19;9.15;;;1.85;;
41897;SDS011;27576;53.366;-1.498;2023-03-24T11:40:54;7.97;;;1.80;;
41897;SDS011;27576;53.366;-1.498;2023-03-24T11:43:22;7.45;;;1.95;;
41897;SDS011;27576;53.366;-1.498;2023-03-24T11:45:52;7.45;;;2.08;;
41897;SDS011;27576;53.366;-1.498;2023-03-24T11:51:22;4.65;;;1.48;;
41897;SDS011;27576;53.366;-1.498;2023-03-24T11:53:52;4.97;;;1.55;;
41897;SDS011;27576;53.366;-1.498;2023-03-24T11:59:01;6.68;;;1.65;;
41897;SDS011;27576;53.366;-1.498;2023-03-24T12:01:36;7.22;;;1.35;;
41897;SDS011;27576;53.366;-1.498;2023-03-24T12:13:03;8.48;;;1.98;;
41897;SDS011;27576;53.366;-1.498;2023-03-24T12:18:49;9.38;;;1.58;;
41897;SDS011;27576;53.366;-1.498;2023-03-24T12:26:47;4.43;;;1.35;;
41897;SDS011;27576;53.366;-1.498;2023-03-24T12:37:30;6.00;;;1.70;;
41897;SDS011;27576;53.366;-1.498;2023-03-24T12:40:27;5.97;;;1.35;;
41897;SDS011;27576;53.366;-1.498;2023-03-24T12:43:08;5.97;;;1.80;;
41897;SDS011;27576;53.366;-1.498;2023-03-24T12:45:49;8.30;;;1.42;;
41897;SDS011;27576;53.366;-1.498;2023-03-24T12:56:54;5.43;;;1.60;;
41897;SDS011;27576;53.366;-1.498;2023-03-24T12:59:29;5.55;;;1.52;;
41897;SDS011;27576;53.366;-1.498;2023-03-24T13:02:17;10.93;;;2.17;;
41897;SDS011;27576;53.366;-1.498;2023-03-24T13:04:45;4.80;;;1.73;;
41897;SDS011;27576;53.366;-1.498;2023-03-24T13:07:16;6.68;;;1.45;;
41897;SDS011;27576;53.366;-1.498;2023-03-24T13:09:51;7.00;;;1.85;;
41897;SDS011;27576;53.366;-1.498;2023-03-24T13:17:38;3.72;;;1.20;;
41897;SDS011;27576;53.366;-1.498;2023-03-24T13:20:13;6.97;;;1.88;;
41897;SDS011;27576;53.366;-1.498;2023-03-24T13:22:49;8.93;;;1.70;;
41897;SDS011;27576;53.366;-1.498;2023-03-24T13:25:21;6.30;;;1.48;;
41897;SDS011;27576;53.366;-1.498;2023-03-24T13:27:51;5.53;;;1.52;;
41897;SDS011;27576;53.366;-1.498;2023-03-24T13:32:57;4.70;;;1.55;;
41897;SDS011;27576;53.366;-1.498;2023-03-24T13:40:52;5.95;;;1.55;;
41897;SDS011;27576;53.366;-1.498;2023-03-24T13:43:21;5.65;;;1.30;;
41897;SDS011;27576;53.366;-1.498;2023-03-24T13:45:49;4.68;;;1.27;;
41897;SDS011;27576;53.366;-1.498;2023-03-24T13:48:41;3.90;;;1.58;;
41897;SDS011;27576;53.366;-1.498;2023-03-24T13:51:18;3.92;;;1.13;;
41897;SDS011;27576;53.366;-1.498;2023-03-24T13:59:32;7.57;;;1.75;;
41897;SDS011;27576;53.366;-1.498;2023-03-24T14:05:03;11.02;;;2.63;;
41897;SDS011;27576;53.366;-1.498;2023-03-24T14:10:29;5.40;;;1.67;;
41897;SDS011;27576;53.366;-1.498;2023-03-24T14:13:01;4.20;;;1.20;;
41897;SDS011;27576;53.366;-1.498;2023-03-24T14:18:14;3.42;;;1.00;;
41897;SDS011;27576;53.366;-1.498;2023-03-24T14:23:44;3.28;;;1.10;;
41897;SDS011;27576;53.366;-1.498;2023-03-24T14:26:13;11.85;;;1.92;;
41897;SDS011;27576;53.366;-1.498;2023-03-24T14:28:53;3.45;;;0.80;;
41897;SDS011;27576;53.366;-1.498;2023-03-24T14:36:25;3.33;;;1.10;;
41897;SDS011;27576;53.366;-1.498;2023-03-24T14:39:04;4.40;;;1.10;;
41897;SDS011;27576;53.366;-1.498;2023-03-24T14:41:31;1.63;;;0.93;;
41897;SDS011;27576;53.366;-1.498;2023-03-24T14:44:03;2.53;;;0.88;;
41897;SDS011;27576;53.366;-1.498;2023-03-24T14:49:05;5.13;;;1.40;;
41897;SDS011;27576;53.366;-1.498;2023-03-24T14:51:35;3.00;;;1.02;;
41897;SDS011;27576;53.366;-1.498;2023-03-24T14:54:18;4.18;;;1.45;;
41897;SDS011;27576;53.366;-1.498;2023-03-24T14:57:14;6.32;;;2.13;;
41897;SDS011;27576;53.366;-1.498;2023-03-24T15:02:42;4.40;;;1.60;;
41897;SDS011;27576;53.366;-1.498;2023-03-24T15:07:59;8.90;;;1.83;;
41897;SDS011;27576;53.366;-1.498;2023-03-24T15:13:44;6.15;;;1.52;;
41897;SDS011;27576;53.366;-1.498;2023-03-24T15:18:49;5.63;;;1.27;;
41897;SDS011;27576;53.366;-1.498;2023-03-24T15:23:49;5.95;;;1.48;;
41897;SDS011;27576;53.366;-1.498;2023-03-24T15:26:15;5.03;;;1.65;;
41897;SDS011;27576;53.366;-1.498;2023-03-24T15:28:42;6.05;;;1.85;;
41897;SDS011;27576;53.366;-1.498;2023-03-24T15:31:08;7.70;;;1.73;;
41897;SDS011;27576;53.366;-1.498;2023-03-24T15:33:38;7.78;;;1.73;;
41897;SDS011;27576;53.366;-1.498;2023-03-24T15:36:11;2.30;;;1.13;;
41897;SDS011;27576;53.366;-1.498;2023-03-24T15:38:38;6.13;;;1.45;;
41897;SDS011;27576;53.366;-1.498;2023-03-24T15:41:11;6.00;;;1.70;;
41897;SDS011;27576;53.366;-1.498;2023-03-24T15:43:42;6.50;;;1.70;;
41897;SDS011;27576;53.366;-1.498;2023-03-24T15:46:26;4.47;;;1.45;;
41897;SDS011;27576;53.366;-1.498;2023-03-24T15:48:53;2.95;;;1.30;;
41897;SDS011;27576;53.366;-1.498;2023-03-24T15:51:44;5.22;;;1.73;;
41897;SDS011;27576;53.366;-1.498;2023-03-24T15:54:19;3.75;;;1.20;;
41897;SDS011;27576;53.366;-1.498;2023-03-24T16:04:45;5.60;;;1.30;;
41897;SDS011;27576;53.366;-1.498;2023-03-24T16:07:20;4.53;;;1.65;;
41897;SDS011;27576;53.366;-1.498;2023-03-24T16:09:58;3.85;;;1.50;;
41897;SDS011;27576;53.366;-1.498;2023-03-24T16:12:30;4.75;;;1.50;;
41897;SDS011;27576;53.366;-1.498;2023-03-24T16:15:00;6.30;;;1.38;;
41897;SDS011;27576;53.366;-1.498;2023-03-24T16:17:29;4.15;;;1.20;;
41897;SDS011;27576;53.366;-1.498;2023-03-24T16:19:55;4.25;;;1.63;;
41897;SDS011;27576;53.366;-1.498;2023-03-24T16:22:20;6.32;;;1.60;;
41897;SDS011;27576;53.366;-1.498;2023-03-24T16:24:46;5.00;;;1.33;;
41897;SDS011;27576;53.366;-1.498;2023-03-24T16:27:12;3.50;;;1.70;;
41897;SDS011;27576;53.366;-1.498;2023-03-24T16:29:38;5.78;;;1.65;;
41897;SDS011;27576;53.366;-1.498;2023-03-24T16:32:03;4.47;;;1.52;;
41897;SDS011;27576;53.366;-1.498;2023-03-24T16:34:29;5.00;;;1.60;;
41897;SDS011;27576;53.366;-1.498;2023-03-24T16:36:55;7.40;;;1.73;;
41897;SDS011;27576;53.366;-1.498;2023-03-24T16:39:22;8.40;;;1.75;;
41897;SDS011;27576;53.366;-1.498;2023-03-24T16:41:49;8.73;;;1.92;;
41897;SDS011;27576;53.366;-1.498;2023-03-24T16:44:15;6.20;;;1.88;;
41897;SDS011;27576;53.366;-1.498;2023-03-24T16:46:43;6.30;;;1.95;;
41897;SDS011;27576;53.366;-1.498;2023-03-24T16:49:14;11.40;;;2.22;;
41897;SDS011;27576;53.366;-1.498;2023-03-24T16:51:40;11.20;;;2.72;;
41897;SDS011;27576;53.366;-1.498;2023-03-24T16:54:06;10.43;;;2.20;;
41897;SDS011;27576;53.366;-1.498;2023-03-24T16:56:33;10.60;;;2.53;;
41897;SDS011;27576;53.366;-1.498;2023-03-24T16:58:59;11.13;;;2.42;;
41897;SDS011;27576;53.366;-1.498;2023-03-24T17:03:58;6.30;;;1.70;;
41897;SDS011;27576;53.366;-1.498;2023-03-24T17:06:29;10.85;;;2.63;;
41897;SDS011;27576;53.366;-1.498;2023-03-24T17:08:57;8.07;;;2.10;;
41897;SDS011;27576;53.366;-1.498;2023-03-24T17:11:27;11.52;;;2.63;;
41897;SDS011;27576;53.366;-1.498;2023-03-24T17:13:55;9.82;;;2.85;;
41897;SDS011;27576;53.366;-1.498;2023-03-24T17:16:26;9.68;;;2.28;;
41897;SDS011;27576;53.366;-1.498;2023-03-24T17:18:53;9.40;;;2.28;;
41897;SDS011;27576;53.366;-1.498;2023-03-24T17:21:19;6.90;;;2.08;;
41897;SDS011;27576;53.366;-1.498;2023-03-24T17:23:45;9.60;;;2.45;;
41897;SDS011;27576;53.366;-1.498;2023-03-24T17:26:13;12.77;;;2.35;;
41897;SDS011;27576;53.366;-1.498;2023-03-24T17:28:39;9.48;;;2.35;;
41897;SDS011;27576;53.366;-1.498;2023-03-24T17:31:04;8.52;;;2.17;;
41897;SDS011;27576;53.366;-1.498;2023-03-24T17:33:30;6.43;;;2.22;;
41897;SDS011;27576;53.366;-1.498;2023-03-24T17:35:55;7.43;;;1.80;;
41897;SDS011;27576;53.366;-1.498;2023-03-24T17:38:21;7.07;;;2.10;;
41897;SDS011;27576;53.366;-1.498;2023-03-24T17:40:46;8.90;;;2.30;;
41897;SDS011;27576;53.366;-1.498;2023-03-24T17:43:12;10.73;;;2.58;;
41897;SDS011;27576;53.366;-1.498;2023-03-24T17:45:39;9.55;;;2.20;;
41897;SDS011;27576;53.366;-1.498;2023-03-24T17:48:05;17.13;;;2.35;;